| time (UTC) | temp F | wind direction | speed MPH | gust MPH | rain 1hr in | rain 24hr in | rain mn in | humidity % | barometer mb |
| 20260903061531 | 52 | 247 | 0.0 | 2.0 | 0.00 | 0.31 | 0.31 | 95 | 1013.7 |
| 20260903054604 | 53 | 242 | 0.0 | 2.0 | 0.00 | 0.31 | 0.31 | 95 | 1013.7 |
| 20260903053030 | 53 | 247 | 0.0 | 1.0 | 0.00 | 0.31 | 0.31 | 95 | 1013.6 |
| 20260903051532 | 53 | 247 | 0.0 | 1.0 | 0.00 | 0.31 | 0.31 | 95 | 1013.5 |
| 20260903050106 | 53 | 247 | 0.0 | 2.0 | 0.00 | 0.31 | 0.31 | 94 | 1013.4 |
| 20260903044530 | 53 | 247 | 0.0 | 1.0 | 0.00 | 0.31 | 0.31 | 94 | 1013.3 |
| 20260903043031 | 53 | 247 | 0.0 | 1.0 | 0.00 | 0.31 | 0.31 | 94 | 1013.2 |
| 20260903041607 | 53 | 257 | 0.0 | 4.0 | 0.00 | 0.31 | 0.31 | 93 | 1012.9 |
| 20260903040030 | 54 | 270 | 0.0 | 0.0 | 0.00 | 0.31 | 0.31 | 93 | 1012.7 |
| 20260903033032 | 54 | 262 | 0.0 | 2.0 | 0.01 | 0.31 | 0.31 | 94 | 1012.5 |
| 20260903031531 | 54 | 248 | 0.0 | 5.0 | 0.01 | 0.31 | 0.31 | 94 | 1012.4 |
| 20260903030032 | 55 | 246 | 0.0 | 3.0 | 0.02 | 0.31 | 0.31 | 94 | 1012.2 |
| 20260903021531 | 56 | 263 | 0.0 | 3.0 | 0.12 | 0.30 | 0.28 | 93 | 1011.9 |
| 20260903020029 | 58 | 276 | 0.0 | 5.0 | 0.11 | 0.28 | 0.19 | 93 | 1011.9 |
| 20260903013104 | 58 | 292 | 0.0 | 0.0 | 0.01 | 0.18 | 0.18 | 92 | 1011.6 |
| 20260903011530 | 58 | 292 | 0.0 | 0.0 | 0.03 | 0.18 | 0.18 | 92 | 1011.5 |
| 20260903004536 | 58 | 292 | 0.0 | 0.0 | 0.05 | 0.17 | 0.17 | 91 | 1011.8 |
| 20260903003032 | 58 | 292 | 0.0 | 0.0 | 0.05 | 0.17 | 0.15 | 91 | 1011.8 |
| 20260903001529 | 58 | 292 | 0.0 | 0.0 | 0.04 | 0.15 | 0.14 | 90 | 1011.8 |
| 20260903000031 | 59 | 292 | 0.0 | 0.0 | 0.03 | 0.14 | 0.12 | 90 | 1011.7 |
| 20260902234533 | 59 | 292 | 0.0 | 0.0 | 0.02 | 0.12 | 0.12 | 89 | 1011.7 |
| 20260902233032 | 60 | 292 | 0.0 | 0.0 | 0.02 | 0.12 | 0.11 | 88 | 1011.8 |
| 20260902231529 | 60 | 292 | 0.0 | 0.0 | 0.02 | 0.11 | 0.11 | 90 | 1011.9 |
| 20260902230029 | 60 | 292 | 0.0 | 0.0 | 0.03 | 0.11 | 0.10 | 91 | 1012.0 |
| 20260902224533 | 59 | 292 | 0.0 | 0.0 | 0.02 | 0.10 | 0.10 | 91 | 1011.8 |
| 20260902223030 | 59 | 292 | 0.0 | 0.0 | 0.03 | 0.10 | 0.09 | 91 | 1011.9 |
| 20260902221532 | 59 | 292 | 0.0 | 0.0 | 0.03 | 0.09 | 0.08 | 90 | 1011.8 |
| 20260902220029 | 59 | 282 | 0.0 | 1.0 | 0.03 | 0.08 | 0.08 | 90 | 1011.7 |
| 20260902214534 | 59 | 261 | 0.0 | 2.0 | 0.04 | 0.08 | 0.07 | 89 | 1011.6 |
| 20260902211531 | 60 | 247 | 0.0 | 0.0 | 0.04 | 0.06 | 0.05 | 89 | 1011.7 |
| 20260902210029 | 59 | 247 | 0.0 | 0.0 | 0.04 | 0.05 | 0.04 | 87 | 1011.7 |
| 20260902204533 | 60 | 247 | 0.0 | 0.0 | 0.03 | 0.04 | 0.03 | 86 | 1011.6 |
| 20260902203031 | 60 | 247 | 0.0 | 0.0 | 0.03 | 0.03 | 0.02 | 84 | 1011.8 |
| 20260902201530 | 61 | 247 | 0.0 | 1.0 | 0.02 | 0.02 | 0.01 | 83 | 1011.8 |
| 20260902200031 | 61 | 247 | 0.0 | 0.0 | 0.01 | 0.01 | 0.01 | 81 | 1011.7 |
| 20260902194529 | 62 | 247 | 0.0 | 1.0 | 0.01 | 0.01 | 0.00 | 78 | 1011.7 |
| 20260902193033 | 63 | 258 | 0.0 | 2.0 | 0.00 | 0.00 | 0.00 | 75 | 1011.8 |
| 20260902191532 | 64 | 294 | 0.0 | 0.0 | 0.00 | 0.00 | 0.00 | 73 | 1011.6 |
| 20260902190030 | 64 | 270 | 0.0 | 0.0 | 0.00 | 0.00 | 0.00 | 70 | 1011.5 |
| 20260902184530 | 64 | 270 | 0.0 | 0.0 | 0.00 | 0.00 | 0.00 | 68 | 1011.4 |
| 20260902181531 | 64 | 270 | 0.0 | 0.0 | 0.00 | 0.00 | 0.00 | 68 | 1011.4 |
| 20260902180030 | 65 | 270 | 0.0 | 0.0 | 0.00 | 0.00 | 0.00 | 66 | 1011.5 |
| 20260902174531 | 68 | 282 | 0.0 | 3.0 | 0.00 | 0.00 | 0.00 | 61 | 1011.4 |
| 20260902173030 | 70 | 336 | 0.0 | 3.0 | 0.00 | 0.00 | 0.00 | 61 | 1011.5 |
| 20260902171530 | 66 | 188 | 0.0 | 1.0 | 0.00 | 0.00 | 0.00 | 69 | 1011.8 |
| 20260902170029 | 63 | 180 | 0.0 | 1.0 | 0.00 | 0.00 | 0.00 | 70 | 1012.1 |
| 20260902164530 | 64 | 180 | 0.0 | 1.0 | 0.00 | 0.00 | 0.00 | 68 | 1012.1 |
| 20260902163029 | 64 | 180 | 0.0 | 2.0 | 0.00 | 0.00 | 0.00 | 72 | 1012.3 |
| 20260902161531 | 62 | 202 | 0.0 | 2.0 | 0.00 | 0.00 | 0.00 | 73 | 1012.5 |
| 20260902160031 | 62 | 187 | 0.0 | 2.0 | 0.00 | 0.00 | 0.00 | 73 | 1012.6 |
| 20260902154529 | 61 | 245 | 0.0 | 2.0 | 0.00 | 0.00 | 0.00 | 75 | 1012.7 |
| 20260902153106 | 60 | 207 | 0.0 | 3.0 | 0.00 | 0.00 | 0.00 | 77 | 1012.9 |
| 20260902151530 | 59 | 247 | 0.0 | 0.0 | 0.00 | 0.00 | 0.00 | 78 | 1013.1 |
| 20260902150031 | 58 | 265 | 0.0 | 1.0 | 0.00 | 0.00 | 0.00 | 80 | 1013.1 |
| 20260902144531 | 58 | 270 | 0.0 | 1.0 | 0.00 | 0.00 | 0.00 | 80 | 1013.3 |
| 20260902143032 | 58 | 274 | 0.0 | 1.0 | 0.00 | 0.00 | 0.00 | 80 | 1013.4 |
| 20260902141531 | 57 | 309 | 0.0 | 1.0 | 0.00 | 0.00 | 0.00 | 81 | 1013.5 |
| 20260902134530 | 57 | 260 | 0.0 | 5.0 | 0.00 | 0.00 | 0.00 | 80 | 1013.4 |
| 20260902133033 | 56 | 261 | 0.0 | 4.0 | 0.00 | 0.00 | 0.00 | 80 | 1013.5 |
| 20260902131533 | 56 | 268 | 0.0 | 6.0 | 0.00 | 0.00 | 0.00 | 80 | 1013.6 |
| 20260902130028 | 56 | 259 | 0.0 | 4.0 | 0.00 | 0.00 | 0.00 | 79 | 1013.7 |
| 20260902124532 | 56 | 257 | 0.0 | 3.0 | 0.00 | 0.00 | 0.00 | 79 | 1013.6 |
| 20260902123145 | 56 | 252 | 0.0 | 4.0 | 0.00 | 0.00 | 0.00 | 79 | 1013.7 |
| 20260902120030 | 56 | 258 | 0.0 | 4.0 | 0.00 | 0.00 | 0.00 | 79 | 1013.7 |
| 20260902114531 | 57 | 252 | 0.0 | 3.0 | 0.00 | 0.00 | 0.00 | 78 | 1014.0 |
| 20260902113103 | 57 | 267 | 0.0 | 6.0 | 0.00 | 0.00 | 0.00 | 77 | 1014.0 |
| 20260902111530 | 57 | 260 | 0.0 | 5.0 | 0.00 | 0.00 | 0.00 | 77 | 1013.9 |
| 20260902110027 | 57 | 259 | 0.0 | 6.0 | 0.00 | 0.00 | 0.00 | 78 | 1013.9 |
| 20260902104549 | 0 | 0 | 0.0 | 0.0 | 0.00 | 0.00 | 0.00 | 100 | |
| 20260902103032 | 58 | 265 | 0.0 | 4.0 | 0.00 | 0.00 | 0.00 | 80 | 1014.1 |
| 20260902101530 | 58 | 267 | 0.0 | 4.0 | 0.00 | 0.00 | 0.00 | 80 | 1014.2 |
| 20260902100032 | 58 | 266 | 0.0 | 4.0 | 0.00 | 0.00 | 0.00 | 80 | 1014.3 |
| 20260902094603 | 58 | 272 | 0.0 | 5.0 | 0.00 | 0.00 | 0.00 | 80 | 1014.4 |
| 20260902093031 | 58 | 261 | 0.0 | 8.0 | 0.00 | 0.00 | 0.00 | 81 | 1014.5 |
| 20260902090031 | 57 | 270 | 0.0 | 4.0 | 0.00 | 0.00 | 0.00 | 81 | 1014.5 |
| 20260902084530 | 57 | 265 | 0.0 | 4.0 | 0.00 | 0.00 | 0.00 | 81 | 1014.5 |
| 20260902083034 | 58 | 277 | 0.0 | 3.0 | 0.00 | 0.00 | 0.00 | 81 | 1014.6 |
| 20260902081530 | 58 | 278 | 0.0 | 3.0 | 0.00 | 0.00 | 0.00 | 81 | 1014.5 |
| 20260902080027 | 57 | 269 | 0.0 | 4.0 | 0.00 | 0.00 | 0.00 | 81 | 1014.7 |
| 20260902074529 | 58 | 261 | 0.0 | 4.0 | 0.00 | 0.00 | 0.00 | 80 | 1014.7 |
| 20260902073030 | 58 | 263 | 0.0 | 5.0 | 0.00 | 0.00 | 0.00 | 79 | 1014.8 |
| 20260902071532 | 59 | 270 | 0.0 | 4.0 | 0.00 | 0.00 | 0.00 | 78 | 1015.0 |
| 20260902070107 | 59 | 265 | 0.0 | 3.0 | 0.00 | 0.00 | 0.00 | 76 | 1015.2 |
| 20260902064531 | 60 | 270 | 0.0 | 5.0 | 0.00 | 0.00 | 0.00 | 76 | 1015.4 |
| 20260902063030 | 60 | 271 | 0.0 | 6.0 | 0.00 | 0.00 | 0.00 | 76 | 1015.4 |